createdAt,value
2018-04-13T00:01:49.378Z,8.73
2018-04-13T00:04:27.525Z,9.83
2018-04-13T00:07:06.518Z,10.43
2018-04-13T00:09:44.603Z,9.80
2018-04-13T00:12:34.594Z,11.20
2018-04-13T00:15:19.128Z,9.87
2018-04-13T00:18:04.331Z,8.63
2018-04-13T00:20:50.182Z,7.47
2018-04-13T00:23:34.309Z,10.23
2018-04-13T00:26:12.878Z,8.33
2018-04-13T00:28:50.807Z,8.63
2018-04-13T00:31:34.761Z,9.17
2018-04-13T00:34:13.574Z,10.47
2018-04-13T00:37:00.237Z,15.23
2018-04-13T00:39:38.898Z,11.43
2018-04-13T00:42:17.050Z,11.83
2018-04-13T00:45:01.545Z,10.03
2018-04-13T00:47:46.208Z,8.07
2018-04-13T00:50:26.404Z,8.57
2018-04-13T00:53:41.457Z,8.33
2018-04-13T00:56:20.402Z,8.53
2018-04-13T00:59:04.387Z,8.37
2018-04-13T01:01:42.405Z,7.90
2018-04-13T01:04:26.808Z,9.37
2018-04-13T01:07:17.587Z,18.47
2018-04-13T01:10:02.297Z,16.53
2018-04-13T01:12:51.584Z,10.10
2018-04-13T01:15:29.860Z,9.57
2018-04-13T01:18:10.661Z,8.23
2018-04-13T01:20:48.655Z,11.33
2018-04-13T01:23:26.566Z,9.47
2018-04-13T01:26:11.527Z,9.73
2018-04-13T01:28:59.939Z,9.07
2018-04-13T01:31:45.351Z,29.70
2018-04-13T01:34:28.443Z,20.73
2018-04-13T01:37:12.108Z,26.80
2018-04-13T01:40:00.540Z,22.30
2018-04-13T01:42:46.666Z,28.33
2018-04-13T01:45:30.624Z,12.13
2018-04-13T01:48:14.140Z,10.27
2018-04-13T01:50:53.060Z,12.87
2018-04-13T01:53:32.515Z,36.07
2018-04-13T01:56:24.223Z,27.80
2018-04-13T01:59:10.060Z,69.47
2018-04-13T02:01:54.844Z,111.47
2018-04-13T02:04:33.594Z,77.03
2018-04-13T02:07:17.336Z,56.23
2018-04-13T02:10:07.207Z,56.50
2018-04-13T02:12:46.049Z,24.13
2018-04-13T02:15:24.251Z,18.03
2018-04-13T02:18:04.291Z,27.70
2018-04-13T02:20:48.817Z,29.70
2018-04-13T02:23:27.866Z,41.77
2018-04-13T02:26:05.760Z,65.20
2018-04-13T02:28:44.893Z,47.23
2018-04-13T02:31:23.292Z,39.50
2018-04-13T02:34:01.168Z,55.50
2018-04-13T02:36:40.609Z,80.07
2018-04-13T02:39:19.569Z,76.13
2018-04-13T02:42:03.551Z,55.30
2018-04-13T02:44:41.366Z,59.17
2018-04-13T02:47:25.295Z,48.00
2018-04-13T02:50:08.469Z,46.80
2018-04-13T02:52:48.028Z,92.47
2018-04-13T02:55:26.158Z,61.63
2018-04-13T02:58:09.329Z,68.60
2018-04-13T03:00:48.769Z,72.20
2018-04-13T03:03:32.940Z,53.30
2018-04-13T03:06:16.569Z,49.67
2018-04-13T03:08:55.164Z,31.93
2018-04-13T03:11:38.642Z,62.57
2018-04-13T03:14:23.225Z,47.13
2018-04-13T03:17:06.983Z,55.20
2018-04-13T03:19:45.794Z,48.13
2018-04-13T03:22:24.203Z,45.90
2018-04-13T03:25:06.496Z,49.30
2018-04-13T03:27:44.498Z,54.73
2018-04-13T03:30:28.304Z,86.83
2018-04-13T03:33:12.186Z,89.87
2018-04-13T03:35:56.558Z,66.43
2018-04-13T03:38:34.614Z,56.43
2018-04-13T03:44:00.855Z,65.50
2018-04-13T03:46:41.594Z,56.10
2018-04-13T03:49:23.077Z,39.40
2018-04-13T03:52:09.767Z,36.77
2018-04-13T03:54:48.161Z,66.97
2018-04-13T03:57:27.289Z,49.57
2018-04-13T04:00:08.230Z,60.60
2018-04-13T04:02:52.889Z,44.53
2018-04-13T04:05:32.391Z,44.43
2018-04-13T04:08:18.081Z,45.00
2018-04-13T04:10:56.119Z,35.03
2018-04-13T04:13:39.855Z,41.07
2018-04-13T04:16:19.137Z,37.67
2018-04-13T04:18:57.193Z,28.60
2018-04-13T04:21:51.733Z,35.53
2018-04-13T04:25:42.444Z,25.63
2018-04-13T04:28:20.634Z,25.60
2018-04-13T04:30:58.966Z,14.27
2018-04-13T04:33:37.311Z,19.63
2018-04-13T04:36:16.804Z,19.37
2018-04-13T04:38:55.952Z,24.00
2018-04-13T04:41:34.032Z,13.67
2018-04-13T04:44:17.872Z,17.90
2018-04-13T04:47:00.599Z,19.07
2018-04-13T04:49:38.551Z,11.23
2018-04-13T04:52:23.642Z,10.37
2018-04-13T04:55:09.675Z,9.20
2018-04-13T04:57:56.693Z,9.30
2018-04-13T05:00:34.857Z,10.77
2018-04-13T05:03:18.824Z,11.07
2018-04-13T05:05:58.298Z,11.30
2018-04-13T05:08:43.425Z,14.37
2018-04-13T05:11:23.068Z,11.07
2018-04-13T05:14:01.001Z,9.63
2018-04-13T05:16:41.211Z,9.53
2018-04-13T05:19:35.594Z,10.10
2018-04-13T05:22:24.699Z,9.97
2018-04-13T05:25:08.601Z,10.80
2018-04-13T05:28:01.747Z,12.77
2018-04-13T05:30:46.085Z,11.83
2018-04-13T05:33:37.381Z,12.37
2018-04-13T05:36:18.584Z,10.70
2018-04-13T05:41:48.995Z,9.07
2018-04-13T05:44:27.012Z,7.90
2018-04-13T05:47:22.259Z,8.47
2018-04-13T05:50:02.092Z,9.13
2018-04-13T05:52:48.589Z,7.20
2018-04-13T05:55:26.287Z,8.30
2018-04-13T05:58:12.249Z,9.73
2018-04-13T06:00:53.228Z,9.93
2018-04-13T06:03:31.743Z,15.90
2018-04-13T06:06:23.610Z,9.57
2018-04-13T06:09:03.895Z,12.37
2018-04-13T06:11:45.217Z,11.57
2018-04-13T06:14:24.404Z,11.10
2018-04-13T06:17:07.282Z,10.53
2018-04-13T06:19:51.839Z,10.83
2018-04-13T06:22:40.078Z,10.40
2018-04-13T06:25:25.276Z,14.63
2018-04-13T06:28:05.509Z,13.70
2018-04-13T06:37:16.643Z,12.77
2018-04-13T06:40:06.221Z,9.57
2018-04-13T06:42:50.879Z,9.27
2018-04-13T06:45:30.116Z,8.40
2018-04-13T06:48:09.050Z,12.27
2018-04-13T06:50:55.435Z,14.43
2018-04-13T06:53:34.893Z,11.17
2018-04-13T06:56:15.874Z,14.97
2018-04-13T06:59:08.747Z,20.43
2018-04-13T07:01:57.146Z,20.23
2018-04-13T07:04:50.898Z,19.90
2018-04-13T07:07:36.473Z,23.40
2018-04-13T07:13:18.501Z,21.13
2018-04-13T07:15:58.534Z,21.83
2018-04-13T07:18:57.590Z,20.93
2018-04-13T07:21:41.507Z,23.80
2018-04-13T07:24:19.657Z,20.87
2018-04-13T07:27:03.001Z,20.27
2018-04-13T07:29:48.880Z,17.73
2018-04-13T07:32:36.889Z,19.33
2018-04-13T07:35:14.892Z,20.00
2018-04-13T07:37:55.501Z,20.10
2018-04-13T07:40:38.682Z,20.77
2018-04-13T07:43:17.196Z,19.00
2018-04-13T07:46:03.844Z,21.00
2018-04-13T07:48:41.644Z,18.90
2018-04-13T07:51:23.852Z,17.77
2018-04-13T07:54:10.836Z,17.80
2018-04-13T07:56:56.494Z,17.67
2018-04-13T07:59:41.765Z,23.03
2018-04-13T08:02:19.712Z,14.80
2018-04-13T08:05:02.638Z,19.97
2018-04-13T08:07:41.580Z,20.77
2018-04-13T08:10:19.768Z,19.50
2018-04-13T08:13:06.377Z,22.27
2018-04-13T08:15:52.465Z,19.47
2018-04-13T08:18:40.268Z,21.87
2018-04-13T08:21:24.014Z,23.47
2018-04-13T08:24:02.660Z,19.60
2018-04-13T08:26:58.669Z,20.83
2018-04-13T08:29:42.818Z,21.93
2018-04-13T08:32:34.619Z,22.33
2018-04-13T08:35:21.150Z,23.07
2018-04-13T08:38:07.046Z,20.03
2018-04-13T08:40:59.818Z,16.80
2018-04-13T08:43:41.844Z,14.03
2018-04-13T08:46:22.688Z,21.07
2018-04-13T08:49:08.600Z,15.87
2018-04-13T08:51:47.323Z,15.40
2018-04-13T08:54:33.854Z,17.57
2018-04-13T08:57:24.397Z,16.90
2018-04-13T09:02:47.408Z,11.60
2018-04-13T09:08:30.872Z,13.23
2018-04-13T09:11:08.747Z,14.83
2018-04-13T09:14:01.903Z,18.27
2018-04-13T09:16:47.711Z,16.17
2018-04-13T09:19:26.993Z,18.97
2018-04-13T09:22:14.147Z,18.97
2018-04-13T09:24:53.957Z,17.53
2018-04-13T09:27:31.823Z,15.97
2018-04-13T09:30:16.721Z,12.37
2018-04-13T09:33:10.680Z,18.63
2018-04-13T09:35:54.266Z,10.97
2018-04-13T09:38:32.083Z,15.10
2018-04-13T09:41:24.485Z,13.90
2018-04-13T09:44:05.142Z,14.97
2018-04-13T09:46:53.954Z,18.17
2018-04-13T09:49:36.626Z,11.57
2018-04-13T09:52:14.756Z,13.37
2018-04-13T09:55:09.139Z,18.20
2018-04-13T09:58:07.031Z,15.23
2018-04-13T10:23:16.576Z,17.10
2018-04-13T10:25:55.085Z,12.43
2018-04-13T10:28:35.921Z,18.20
2018-04-13T10:31:16.778Z,17.00
2018-04-13T10:34:00.677Z,12.63
2018-04-13T10:36:55.416Z,14.03
2018-04-13T10:39:38.245Z,15.90
2018-04-13T10:42:18.793Z,19.07
2018-04-13T10:45:09.142Z,16.00
2018-04-13T10:48:03.003Z,16.40
2018-04-13T10:50:43.016Z,13.27
2018-04-13T10:53:21.162Z,14.97
2018-04-13T10:56:02.574Z,16.33
2018-04-13T10:58:41.393Z,10.57
2018-04-13T11:01:19.884Z,12.23
2018-04-13T11:04:07.735Z,15.30
2018-04-13T11:09:45.052Z,11.50
2018-04-13T11:12:26.703Z,12.73
2018-04-13T11:15:05.423Z,11.60
2018-04-13T11:18:03.429Z,16.60
2018-04-13T11:20:46.253Z,18.27
2018-04-13T11:23:37.633Z,13.13
2018-04-13T11:26:21.449Z,16.20
2018-04-13T11:29:19.442Z,15.57
2018-04-13T11:32:03.266Z,13.57
2018-04-13T11:34:48.778Z,13.03
2018-04-13T11:37:28.282Z,15.90
2018-04-13T11:40:07.976Z,14.30
2018-04-13T11:42:52.565Z,11.90
2018-04-13T11:45:33.000Z,11.20
2018-04-13T11:51:06.761Z,11.27
2018-04-13T11:53:53.382Z,14.13
2018-04-13T11:56:39.276Z,9.67
2018-04-13T11:59:33.872Z,11.27
2018-04-13T12:02:21.376Z,15.00
2018-04-13T12:05:11.380Z,7.67
2018-04-13T12:07:51.966Z,10.37
2018-04-13T12:10:31.114Z,6.37
2018-04-13T12:13:16.349Z,7.27
2018-04-13T12:16:07.463Z,11.00
2018-04-13T12:18:47.604Z,7.77
2018-04-13T12:21:33.210Z,5.00
2018-04-13T12:24:11.868Z,5.13
2018-04-13T12:26:53.724Z,6.37
2018-04-13T12:29:32.709Z,7.30
2018-04-13T12:32:10.929Z,5.80
2018-04-13T12:34:55.381Z,4.43
2018-04-13T12:37:33.814Z,4.20
2018-04-13T12:40:13.617Z,3.83
2018-04-13T12:42:54.522Z,4.57
2018-04-13T12:45:33.117Z,5.40
2018-04-13T12:48:12.340Z,4.43
2018-04-13T12:50:57.547Z,4.27
2018-04-13T12:53:36.268Z,5.23
2018-04-13T12:56:16.439Z,4.30
2018-04-13T12:58:57.000Z,3.30
2018-04-13T13:01:37.966Z,3.70
2018-04-13T13:04:16.282Z,3.27
2018-04-13T13:06:55.273Z,3.20
2018-04-13T13:09:34.847Z,4.30
2018-04-13T13:12:13.256Z,3.63
2018-04-13T13:14:53.644Z,6.10
2018-04-13T13:17:39.535Z,3.17
2018-04-13T13:20:18.653Z,4.93
2018-04-13T13:22:56.771Z,2.87
2018-04-13T13:25:40.912Z,3.83
2018-04-13T13:28:18.991Z,4.60
2018-04-13T13:30:57.027Z,3.40
2018-04-13T13:33:40.916Z,3.77
2018-04-13T13:36:20.107Z,3.30
2018-04-13T13:39:02.543Z,4.00
2018-04-13T13:41:44.022Z,2.17
2018-04-13T13:44:22.540Z,1.27
2018-04-13T13:47:04.847Z,2.20
2018-04-13T13:49:43.624Z,2.80
2018-04-13T13:52:21.627Z,2.33
2018-04-13T13:55:02.302Z,5.63
2018-04-13T13:57:41.553Z,2.93
2018-04-13T14:00:20.326Z,2.20
2018-04-13T14:03:03.803Z,1.63
2018-04-13T14:05:41.749Z,2.27
2018-04-13T14:08:22.721Z,2.77
2018-04-13T14:11:08.521Z,2.83
2018-04-13T14:13:46.647Z,2.43
2018-04-13T14:16:29.871Z,6.33
2018-04-13T14:19:11.048Z,9.20
2018-04-13T14:21:49.020Z,2.17
2018-04-13T14:24:29.394Z,3.00
2018-04-13T14:27:09.267Z,4.33
2018-04-13T14:29:47.369Z,4.83
2018-04-13T14:32:30.291Z,3.93
2018-04-13T14:35:09.185Z,3.97
2018-04-13T14:37:47.864Z,3.03
2018-04-13T14:40:31.972Z,2.97
2018-04-13T14:43:10.011Z,2.60
2018-04-13T14:45:49.106Z,4.30
2018-04-13T14:48:32.194Z,3.43
2018-04-13T14:51:10.546Z,4.57
2018-04-13T14:53:48.828Z,2.67
2018-04-13T14:56:28.090Z,4.80
2018-04-13T14:59:12.477Z,4.23
2018-04-13T15:01:53.322Z,3.67
2018-04-13T15:04:31.300Z,3.73
2018-04-13T15:07:09.212Z,4.03
2018-04-13T15:09:48.075Z,4.00
2018-04-13T15:12:28.071Z,3.07
2018-04-13T15:15:10.973Z,4.63
2018-04-13T15:17:49.242Z,4.23
2018-04-13T15:20:30.153Z,3.23
2018-04-13T15:23:09.436Z,3.70
2018-04-13T15:25:48.822Z,3.27
2018-04-13T15:28:31.065Z,3.57
2018-04-13T15:31:11.037Z,2.87
2018-04-13T15:33:51.403Z,7.90
2018-04-13T15:36:34.198Z,5.90
2018-04-13T15:39:13.257Z,4.33
2018-04-13T15:41:56.065Z,3.43
2018-04-13T15:44:40.382Z,3.63
2018-04-13T15:50:13.544Z,4.73
2018-04-13T15:52:53.452Z,3.17
2018-04-13T15:55:35.690Z,3.90
2018-04-13T15:58:14.218Z,3.10
2018-04-13T16:00:54.693Z,5.77
2018-04-13T16:03:36.739Z,4.27
2018-04-13T16:06:16.032Z,6.17
2018-04-13T16:08:57.689Z,4.60
2018-04-13T16:11:38.680Z,2.50
2018-04-13T16:14:16.928Z,3.37
2018-04-13T16:16:58.901Z,4.93
2018-04-13T16:19:37.805Z,3.10
2018-04-13T16:22:16.844Z,2.23
2018-04-13T16:25:01.418Z,2.20
2018-04-13T16:27:39.817Z,2.30
2018-04-13T16:30:18.813Z,2.10
2018-04-13T16:33:02.239Z,2.17
2018-04-13T16:35:40.430Z,1.97
2018-04-13T16:38:18.861Z,2.13
2018-04-13T16:41:02.230Z,1.83
2018-04-13T16:43:40.822Z,2.20
2018-04-13T16:46:19.497Z,2.70
2018-04-13T16:49:03.225Z,2.50
2018-04-13T16:51:42.085Z,2.50
2018-04-13T16:54:28.267Z,3.73
2018-04-13T16:57:10.027Z,3.47
2018-04-13T16:59:50.933Z,2.87
2018-04-13T17:02:40.672Z,2.97
2018-04-13T17:05:22.128Z,4.07
2018-04-13T17:08:04.362Z,4.77
2018-04-13T17:10:41.983Z,4.60
2018-04-13T17:13:22.704Z,4.43
2018-04-13T17:16:03.165Z,2.10
2018-04-13T17:18:43.269Z,1.80
2018-04-13T17:21:23.858Z,1.93
2018-04-13T17:24:04.337Z,2.37
2018-04-13T17:26:48.174Z,2.20
2018-04-13T17:29:26.353Z,2.70
2018-04-13T17:32:10.033Z,2.63
2018-04-13T17:34:48.117Z,2.47
2018-04-13T17:37:31.245Z,2.00
2018-04-13T17:40:11.417Z,2.53
2018-04-13T17:42:50.333Z,2.60
2018-04-13T17:45:32.626Z,2.60
2018-04-13T17:48:10.428Z,2.83
2018-04-13T17:50:49.316Z,2.13
2018-04-13T17:53:32.656Z,2.23
2018-04-13T17:56:10.854Z,2.00
2018-04-13T17:58:49.080Z,2.27
2018-04-13T18:01:30.239Z,2.63
2018-04-13T18:04:12.615Z,2.17
2018-04-13T18:06:53.593Z,1.77
2018-04-13T18:09:32.508Z,2.83
2018-04-13T18:12:10.558Z,2.73
2018-04-13T18:14:53.177Z,1.90
2018-04-13T18:17:31.794Z,2.50
2018-04-13T18:20:11.742Z,3.13
2018-04-13T18:22:51.551Z,4.40
2018-04-13T18:25:34.284Z,2.57
2018-04-13T18:28:12.659Z,2.10
2018-04-13T18:30:52.916Z,2.73
2018-04-13T18:33:33.485Z,2.80
2018-04-13T18:36:14.193Z,3.37
2018-04-13T18:38:55.341Z,2.70
2018-04-13T18:41:34.218Z,3.23
2018-04-13T18:44:14.315Z,2.97
2018-04-13T18:46:56.282Z,4.10
2018-04-13T18:49:36.749Z,5.40
2018-04-13T18:52:15.618Z,3.13
2018-04-13T18:54:58.167Z,3.77
2018-04-13T18:57:37.743Z,4.50
2018-04-13T19:00:15.770Z,5.53
2018-04-13T19:02:55.453Z,2.90
2018-04-13T19:05:35.653Z,2.30
2018-04-13T19:08:17.350Z,3.17
2018-04-13T19:10:58.382Z,3.50
2018-04-13T19:13:38.495Z,3.13
2018-04-13T19:16:16.622Z,2.80
2018-04-13T19:18:57.116Z,2.73
2018-04-13T19:21:37.687Z,3.17
2018-04-13T19:24:17.832Z,3.40
2018-04-13T19:26:59.311Z,3.17
2018-04-13T19:29:38.410Z,3.10
2018-04-13T19:32:20.372Z,2.07
2018-04-13T19:35:01.653Z,3.30
2018-04-13T19:37:40.504Z,2.60
2018-04-13T19:40:23.231Z,2.53
2018-04-13T19:43:02.618Z,2.50
2018-04-13T19:45:40.794Z,2.73
2018-04-13T19:48:23.803Z,2.40
2018-04-13T19:51:02.538Z,2.50
2018-04-13T19:53:42.340Z,2.50
2018-04-13T19:56:25.615Z,3.00
2018-04-13T19:59:03.775Z,2.60
2018-04-13T20:01:43.539Z,4.07
2018-04-13T20:07:03.855Z,2.90
2018-04-13T20:09:45.816Z,3.03
2018-04-13T20:12:24.915Z,3.47
2018-04-13T20:15:07.213Z,3.50
2018-04-13T20:17:45.956Z,4.03
2018-04-13T20:20:25.835Z,3.70
2018-04-13T20:23:07.887Z,3.70
2018-04-13T20:25:46.587Z,4.50
2018-04-13T20:28:28.993Z,5.10
2018-04-13T20:31:07.591Z,4.47
2018-04-13T20:33:50.182Z,5.40
2018-04-13T20:36:28.937Z,3.77
2018-04-13T20:39:08.497Z,4.33
2018-04-13T20:41:49.962Z,5.20
2018-04-13T20:44:28.960Z,4.77
2018-04-13T20:47:09.496Z,5.63
2018-04-13T20:49:49.822Z,4.80
2018-04-13T20:52:32.480Z,8.30
2018-04-13T20:55:11.224Z,6.00
2018-04-13T20:57:49.823Z,5.60
2018-04-13T21:00:30.814Z,5.10
2018-04-13T21:03:14.496Z,5.17
2018-04-13T21:05:52.637Z,5.57
2018-04-13T21:08:31.964Z,6.17
2018-04-13T21:11:13.647Z,5.07
2018-04-13T21:13:53.147Z,4.80
2018-04-13T21:16:31.218Z,5.93
2018-04-13T21:19:14.235Z,5.37
2018-04-13T21:21:52.930Z,5.10
2018-04-13T21:24:32.806Z,7.23
2018-04-13T21:27:14.555Z,6.20
2018-04-13T21:29:52.687Z,5.67
2018-04-13T21:32:33.142Z,5.40
2018-04-13T21:35:14.307Z,5.63
2018-04-13T21:37:52.521Z,5.97
2018-04-13T21:40:37.562Z,5.07
2018-04-13T21:43:17.695Z,6.30
2018-04-13T21:45:56.717Z,6.13
2018-04-13T21:48:39.178Z,5.43
2018-04-13T21:51:22.765Z,7.37
2018-04-13T21:54:01.009Z,5.43
2018-04-13T21:56:41.721Z,5.17
2018-04-13T21:59:20.489Z,6.13
2018-04-13T22:01:58.604Z,5.40
2018-04-13T22:04:41.485Z,6.37
2018-04-13T22:07:19.519Z,5.13
2018-04-13T22:09:57.622Z,4.60
2018-04-13T22:12:50.824Z,5.63
2018-04-13T22:15:29.063Z,4.70
2018-04-13T22:18:08.910Z,5.13
2018-04-13T22:20:47.608Z,4.97
2018-04-13T22:23:25.826Z,5.23
2018-04-13T22:26:03.752Z,4.73
2018-04-13T22:28:45.137Z,4.37
2018-04-13T22:31:23.662Z,4.60
2018-04-13T22:34:01.986Z,4.77
2018-04-13T22:36:43.622Z,7.40
2018-04-13T22:39:21.822Z,7.47
2018-04-13T22:42:00.187Z,5.37
2018-04-13T22:44:40.160Z,6.10
2018-04-13T22:47:18.237Z,6.60
2018-04-13T22:49:56.954Z,6.53
2018-04-13T22:52:35.914Z,5.97
2018-04-13T22:55:14.105Z,6.77
2018-04-13T22:57:52.577Z,6.40
2018-04-13T23:00:31.921Z,5.70
2018-04-13T23:03:10.837Z,6.30
2018-04-13T23:05:49.261Z,7.57
2018-04-13T23:08:31.158Z,7.53
2018-04-13T23:11:09.990Z,6.13
2018-04-13T23:13:48.036Z,7.37
2018-04-13T23:16:31.449Z,7.37
2018-04-13T23:19:09.803Z,6.67
2018-04-13T23:21:48.829Z,6.43
2018-04-13T23:24:27.655Z,5.83
2018-04-13T23:27:05.822Z,6.70
2018-04-13T23:29:44.083Z,5.47
2018-04-13T23:32:23.002Z,6.10
2018-04-13T23:35:02.048Z,6.10
2018-04-13T23:37:41.029Z,6.90
2018-04-13T23:40:19.184Z,6.70
2018-04-13T23:42:58.870Z,6.77
2018-04-13T23:45:43.605Z,5.40
2018-04-13T23:48:21.737Z,7.30
2018-04-13T23:50:59.741Z,8.00
2018-04-13T23:53:39.121Z,5.77
2018-04-13T23:56:17.705Z,6.27
2018-04-13T23:58:55.867Z,6.73
